Time;durP1;ratioP1;P1;durP2;ratioP2;P2;SDS_P1;SDS_P2;PMS_P1;PMS_P2;Temp;Humidity;BMP_temperature;BMP_pressure;BME280_temperature;BME280_humidity;BME280_pressure;Samples;Min_cycle;Max_cycle;Signal;HPM_P1;HPM_P2
2021/08/11 00:02:09;;;;;;;8.10;6.77;;;;;;;;;;5139113;27;20315;-77
2021/08/11 00:04:36;;;;;;;8.37;5.93;;;;;;;;;;5139639;27;20230;-77
2021/08/11 00:07:04;;;;;;;8.57;6.10;;;;;;;;;;5139429;27;20229;-77
2021/08/11 00:09:31;;;;;;;7.70;5.97;;;;;;;;;;5139502;27;20308;-77
2021/08/11 00:11:58;;;;;;;7.07;6.00;;;;;;;;;;5139614;27;20253;-78
2021/08/11 00:14:27;;;;;;;11.03;6.40;;;;;;;;;;5139090;27;20230;-78
2021/08/11 00:16:55;;;;;;;8.37;6.37;;;;;;;;;;5139389;27;20323;-78
2021/08/11 00:19:22;;;;;;;8.60;6.67;;;;;;;;;;5137316;27;20236;-78
2021/08/11 00:21:50;;;;;;;7.73;6.27;;;;;;;;;;5135204;27;20216;-77
2021/08/11 00:24:17;;;;;;;9.03;6.90;;;;;;;;;;5135973;27;20296;-77
2021/08/11 00:26:44;;;;;;;8.30;6.50;;;;;;;;;;5136057;27;20207;-77
2021/08/11 00:29:11;;;;;;;8.57;6.17;;;;;;;;;;5135984;27;20283;-78
2021/08/11 00:31:40;;;;;;;8.43;6.30;;;;;;;;;;5135822;27;20280;-78
2021/08/11 00:34:07;;;;;;;8.53;7.17;;;;;;;;;;5135555;27;20197;-78
2021/08/11 00:36:34;;;;;;;7.37;6.47;;;;;;;;;;5136077;27;20292;-77
2021/08/11 00:39:02;;;;;;;8.63;6.30;;;;;;;;;;5136196;27;20201;-77
2021/08/11 00:41:29;;;;;;;10.60;6.53;;;;;;;;;;5135881;27;20311;-78
2021/08/11 00:43:56;;;;;;;7.67;6.60;;;;;;;;;;5135300;27;20197;-78
2021/08/11 00:46:23;;;;;;;9.93;6.60;;;;;;;;;;5135559;27;20229;-77
2021/08/11 00:48:52;;;;;;;8.83;6.40;;;;;;;;;;5135410;27;20228;-78
2021/08/11 00:51:19;;;;;;;9.77;6.80;;;;;;;;;;5135523;27;20624;-78
2021/08/11 00:53:47;;;;;;;10.70;7.23;;;;;;;;;;5135161;27;20327;-77
2021/08/11 00:56:18;;;;;;;10.83;7.17;;;;;;;;;;5135522;27;20197;-78
2021/08/11 00:58:45;;;;;;;8.43;6.67;;;;;;;;;;5135130;27;20215;-77
2021/08/11 01:01:12;;;;;;;7.53;6.17;;;;;;;;;;5135092;27;20236;-77
2021/08/11 01:03:39;;;;;;;10.93;6.90;;;;;;;;;;5135527;27;20288;-77
2021/08/11 01:06:08;;;;;;;8.93;6.57;;;;;;;;;;5135444;27;20284;-78
2021/08/11 01:08:36;;;;;;;9.40;6.60;;;;;;;;;;5135436;27;20255;-78
2021/08/11 01:11:04;;;;;;;8.97;6.70;;;;;;;;;;5135260;27;20284;-77
2021/08/11 01:13:31;;;;;;;7.27;6.33;;;;;;;;;;5134862;27;20291;-77
2021/08/11 01:15:58;;;;;;;6.57;5.87;;;;;;;;;;5133810;27;20284;-77
2021/08/11 01:18:25;;;;;;;8.37;6.10;;;;;;;;;;5134849;27;20201;-77
2021/08/11 01:20:56;;;;;;;7.77;5.90;;;;;;;;;;5134735;27;20303;-78
2021/08/11 01:23:26;;;;;;;7.50;6.00;;;;;;;;;;5134626;27;20287;-78
2021/08/11 01:25:56;;;;;;;8.37;7.20;;;;;;;;;;5135075;27;20293;-77
2021/08/11 01:28:38;;;;;;;8.63;6.30;;;;;;;;;;5134307;27;20212;-78
2021/08/11 01:31:10;;;;;;;9.30;6.43;;;;;;;;;;5134971;27;20200;-77
2021/08/11 01:33:50;;;;;;;10.67;6.87;;;;;;;;;;5134682;27;20240;-77
2021/08/11 01:36:21;;;;;;;6.87;6.17;;;;;;;;;;5134689;27;20283;-78
2021/08/11 01:38:51;;;;;;;10.20;6.87;;;;;;;;;;5134875;27;20200;-77
2021/08/11 01:41:19;;;;;;;9.20;6.97;;;;;;;;;;5134270;27;20315;-78
2021/08/11 01:43:47;;;;;;;8.53;6.43;;;;;;;;;;5134461;27;20597;-77
2021/08/11 01:46:15;;;;;;;10.73;7.00;;;;;;;;;;5134349;27;20745;-78
2021/08/11 01:48:42;;;;;;;10.53;6.83;;;;;;;;;;5133295;27;20277;-77
2021/08/11 01:51:11;;;;;;;11.77;7.23;;;;;;;;;;5134692;27;20288;-77
2021/08/11 01:53:39;;;;;;;9.90;7.13;;;;;;;;;;5134037;27;20237;-78
2021/08/11 01:56:06;;;;;;;8.80;7.17;;;;;;;;;;5133887;27;20269;-77
2021/08/11 01:58:33;;;;;;;10.67;7.33;;;;;;;;;;5134436;27;20252;-77
2021/08/11 02:01:01;;;;;;;9.53;7.00;;;;;;;;;;5134216;27;20617;-77
2021/08/11 02:03:29;;;;;;;10.57;7.40;;;;;;;;;;5134457;27;20288;-77
2021/08/11 02:05:56;;;;;;;11.63;6.83;;;;;;;;;;5134298;27;20292;-77
2021/08/11 02:08:25;;;;;;;8.83;6.97;;;;;;;;;;5134229;27;20624;-77
2021/08/11 02:10:54;;;;;;;11.40;7.00;;;;;;;;;;5133481;27;20599;-77
2021/08/11 02:13:22;;;;;;;8.77;6.73;;;;;;;;;;5133560;27;20280;-77
2021/08/11 02:15:49;;;;;;;9.07;6.67;;;;;;;;;;5133928;27;20289;-77
2021/08/11 02:18:16;;;;;;;9.63;7.07;;;;;;;;;;5133843;27;20197;-77
2021/08/11 02:20:44;;;;;;;8.20;6.90;;;;;;;;;;5133774;27;20306;-77
2021/08/11 02:23:12;;;;;;;10.77;6.93;;;;;;;;;;5134004;27;20265;-77
2021/08/11 02:25:46;;;;;;;10.10;7.67;;;;;;;;;;5133161;27;20762;-77
2021/08/11 02:28:16;;;;;;;8.10;6.80;;;;;;;;;;5133835;27;20283;-77
2021/08/11 02:30:47;;;;;;;10.33;6.97;;;;;;;;;;5133838;27;20285;-78
2021/08/11 02:33:18;;;;;;;10.60;7.87;;;;;;;;;;5133639;27;20284;-77
2021/08/11 02:35:47;;;;;;;9.83;7.57;;;;;;;;;;5133387;27;20613;-78
2021/08/11 02:38:18;;;;;;;9.47;7.37;;;;;;;;;;5133640;27;20308;-77
2021/08/11 02:40:49;;;;;;;8.27;6.80;;;;;;;;;;5133501;27;20287;-77
2021/08/11 02:43:19;;;;;;;9.53;7.30;;;;;;;;;;5133012;27;20216;-77
2021/08/11 02:45:48;;;;;;;10.10;7.10;;;;;;;;;;5133527;27;20232;-78
2021/08/11 02:48:15;;;;;;;11.20;7.70;;;;;;;;;;5133517;27;20201;-77
2021/08/11 02:50:44;;;;;;;10.00;7.27;;;;;;;;;;5131990;27;20208;-77
2021/08/11 02:53:12;;;;;;;11.23;7.20;;;;;;;;;;5133007;27;20761;-77
2021/08/11 02:55:40;;;;;;;7.80;6.77;;;;;;;;;;5132704;27;20197;-78
2021/08/11 02:58:09;;;;;;;9.27;6.23;;;;;;;;;;5112380;27;20212;-77
2021/08/11 03:00:37;;;;;;;9.90;6.47;;;;;;;;;;5112959;28;20292;-78
2021/08/11 03:03:04;;;;;;;9.70;7.00;;;;;;;;;;5112760;28;20312;-77
2021/08/11 03:05:32;;;;;;;8.67;6.80;;;;;;;;;;5112592;28;20298;-77
2021/08/11 03:08:00;;;;;;;10.30;7.13;;;;;;;;;;5111670;28;20292;-77
2021/08/11 03:10:28;;;;;;;9.83;7.33;;;;;;;;;;5112188;28;20284;-77
2021/08/11 03:12:55;;;;;;;11.30;7.97;;;;;;;;;;5112617;28;20720;-77
2021/08/11 03:15:24;;;;;;;9.30;7.37;;;;;;;;;;5112715;28;20293;-77
2021/08/11 03:17:51;;;;;;;10.17;7.50;;;;;;;;;;5112647;28;20562;-77
2021/08/11 03:20:18;;;;;;;12.90;7.30;;;;;;;;;;5112717;28;20209;-77
2021/08/11 03:22:46;;;;;;;9.53;7.43;;;;;;;;;;5112444;28;20228;-77
2021/08/11 03:25:13;;;;;;;9.33;7.17;;;;;;;;;;5112224;28;20292;-77
2021/08/11 03:27:40;;;;;;;10.23;7.40;;;;;;;;;;5112313;28;20291;-77
2021/08/11 03:30:08;;;;;;;10.13;7.43;;;;;;;;;;5112527;28;20292;-77
2021/08/11 03:32:36;;;;;;;9.10;7.03;;;;;;;;;;5112491;28;20185;-77
2021/08/11 03:35:04;;;;;;;9.10;7.00;;;;;;;;;;5112146;28;20292;-77
2021/08/11 03:37:31;;;;;;;9.90;6.87;;;;;;;;;;5111927;28;20587;-77
2021/08/11 03:39:58;;;;;;;8.33;6.93;;;;;;;;;;5112497;28;20194;-77
2021/08/11 03:42:25;;;;;;;12.57;7.60;;;;;;;;;;5112298;28;20780;-77
2021/08/11 03:44:52;;;;;;;9.10;7.33;;;;;;;;;;5112020;28;20288;-77
2021/08/11 03:47:20;;;;;;;9.87;7.83;;;;;;;;;;5112619;28;20285;-77
2021/08/11 03:49:50;;;;;;;10.50;7.60;;;;;;;;;;5112285;28;20202;-77
2021/08/11 03:52:17;;;;;;;10.00;7.07;;;;;;;;;;5111985;28;20225;-77
2021/08/11 03:54:45;;;;;;;11.70;7.07;;;;;;;;;;5111794;28;20320;-77
2021/08/11 03:57:12;;;;;;;12.53;7.50;;;;;;;;;;5114846;28;20200;-77
2021/08/11 03:59:39;;;;;;;8.00;6.23;;;;;;;;;;5125844;27;20300;-77
2021/08/11 04:02:06;;;;;;;7.80;5.97;;;;;;;;;;5136477;27;20315;-77
2021/08/11 04:04:34;;;;;;;7.63;6.00;;;;;;;;;;5136585;27;20197;-77
2021/08/11 04:07:03;;;;;;;8.27;6.20;;;;;;;;;;5136150;27;20200;-76
2021/08/11 04:09:30;;;;;;;9.73;7.27;;;;;;;;;;5136443;27;20252;-77
2021/08/11 04:11:57;;;;;;;10.87;7.67;;;;;;;;;;5136346;27;20747;-77
2021/08/11 04:14:24;;;;;;;15.17;7.80;;;;;;;;;;5136301;27;20196;-77
2021/08/11 04:16:51;;;;;;;11.83;7.83;;;;;;;;;;5136329;27;20207;-77
2021/08/11 04:19:19;;;;;;;11.33;8.07;;;;;;;;;;5136166;27;20288;-77
2021/08/11 04:21:46;;;;;;;11.37;7.57;;;;;;;;;;5135837;27;20288;-77
2021/08/11 04:24:14;;;;;;;9.80;7.50;;;;;;;;;;5136258;27;20292;-77
2021/08/11 04:26:42;;;;;;;8.57;6.97;;;;;;;;;;5136066;27;20832;-77
2021/08/11 04:29:09;;;;;;;11.90;7.77;;;;;;;;;;5135837;27;20203;-77
2021/08/11 04:31:36;;;;;;;12.40;7.93;;;;;;;;;;5135913;27;20243;-77
2021/08/11 04:34:03;;;;;;;10.80;7.83;;;;;;;;;;5136133;27;20280;-77
2021/08/11 04:36:30;;;;;;;11.27;7.63;;;;;;;;;;5135797;27;20193;-77
2021/08/11 04:38:57;;;;;;;9.60;6.87;;;;;;;;;;5136024;27;20287;-77
2021/08/11 04:41:26;;;;;;;9.40;6.80;;;;;;;;;;5135990;27;20292;-77
2021/08/11 04:43:53;;;;;;;7.70;6.77;;;;;;;;;;5135611;27;20231;-77
2021/08/11 04:46:21;;;;;;;11.23;6.53;;;;;;;;;;5136009;27;20289;-77
2021/08/11 04:48:48;;;;;;;9.40;6.53;;;;;;;;;;5135705;27;20621;-77
2021/08/11 04:51:15;;;;;;;9.30;6.87;;;;;;;;;;5135172;27;20280;-77
2021/08/11 04:53:42;;;;;;;9.03;6.33;;;;;;;;;;5135687;27;20256;-77
2021/08/11 04:56:10;;;;;;;8.57;6.57;;;;;;;;;;5135517;27;20253;-77
2021/08/11 04:58:39;;;;;;;8.27;7.20;;;;;;;;;;5134669;27;20288;-77
2021/08/11 05:01:06;;;;;;;9.77;7.17;;;;;;;;;;5115087;28;20557;-77
2021/08/11 05:03:36;;;;;;;13.03;7.77;;;;;;;;;;5114434;28;20807;-77
2021/08/11 05:06:04;;;;;;;11.23;7.40;;;;;;;;;;5112803;28;20205;-77
2021/08/11 05:08:31;;;;;;;11.57;8.30;;;;;;;;;;5114639;28;20245;-77
2021/08/11 05:10:58;;;;;;;10.20;7.80;;;;;;;;;;5114586;28;20292;-77
2021/08/11 05:13:26;;;;;;;11.67;8.00;;;;;;;;;;5114944;27;20194;-77
2021/08/11 05:15:54;;;;;;;10.93;7.70;;;;;;;;;;5114472;28;20233;-77
2021/08/11 05:18:22;;;;;;;10.40;8.17;;;;;;;;;;5114642;28;20284;-77
2021/08/11 05:20:49;;;;;;;11.53;7.47;;;;;;;;;;5114070;28;20371;-77
2021/08/11 05:23:16;;;;;;;10.67;8.00;;;;;;;;;;5114406;28;20230;-77
2021/08/11 05:25:43;;;;;;;10.13;8.10;;;;;;;;;;5114411;28;20297;-76
2021/08/11 05:28:11;;;;;;;11.27;8.20;;;;;;;;;;5114300;28;20288;-77
2021/08/11 05:30:38;;;;;;;12.30;8.13;;;;;;;;;;5114464;28;20240;-77
2021/08/11 05:33:06;;;;;;;12.87;8.00;;;;;;;;;;5114485;27;20544;-77
2021/08/11 05:35:34;;;;;;;11.80;8.13;;;;;;;;;;5113890;28;20288;-77
2021/08/11 05:38:01;;;;;;;10.00;7.33;;;;;;;;;;5114071;27;20599;-77
2021/08/11 05:40:29;;;;;;;11.87;7.90;;;;;;;;;;5114180;28;20643;-77
2021/08/11 05:42:56;;;;;;;9.97;6.80;;;;;;;;;;5114187;28;20265;-77
2021/08/11 05:45:23;;;;;;;9.57;6.13;;;;;;;;;;5114007;27;20229;-77
2021/08/11 05:47:50;;;;;;;7.10;5.97;;;;;;;;;;5113868;27;20608;-77
2021/08/11 05:50:19;;;;;;;8.90;6.33;;;;;;;;;;5113789;28;20317;-77
2021/08/11 05:52:47;;;;;;;9.17;5.50;;;;;;;;;;5113597;28;20299;-77
2021/08/11 05:55:14;;;;;;;8.63;6.53;;;;;;;;;;5113637;28;20202;-77
2021/08/11 05:57:42;;;;;;;6.63;5.73;;;;;;;;;;5113813;28;20198;-77
2021/08/11 06:00:10;;;;;;;6.93;5.70;;;;;;;;;;5127865;27;20292;-78
2021/08/11 06:02:39;;;;;;;7.83;5.90;;;;;;;;;;5133754;27;20236;-77
2021/08/11 06:05:07;;;;;;;10.97;5.73;;;;;;;;;;5134705;27;20203;-78
2021/08/11 06:07:36;;;;;;;7.23;5.97;;;;;;;;;;5134127;27;20287;-77
2021/08/11 06:10:03;;;;;;;6.70;5.97;;;;;;;;;;5133982;27;20325;-77
2021/08/11 06:12:30;;;;;;;9.27;5.93;;;;;;;;;;5134203;27;20287;-78
2021/08/11 06:14:58;;;;;;;7.10;5.60;;;;;;;;;;5133914;27;20299;-78
2021/08/11 06:17:25;;;;;;;6.07;5.10;;;;;;;;;;5133555;27;20280;-78
2021/08/11 06:19:52;;;;;;;6.25;5.10;;;;;;;;;;5133525;27;20288;-78
2021/08/11 06:22:19;;;;;;;7.60;5.43;;;;;;;;;;5133762;27;20233;-78
2021/08/11 06:24:48;;;;;;;6.32;4.85;;;;;;;;;;5133854;27;20307;-78
2021/08/11 06:27:15;;;;;;;6.97;4.78;;;;;;;;;;5133793;27;20244;-78
2021/08/11 06:29:42;;;;;;;7.57;4.75;;;;;;;;;;5133974;27;20284;-78
2021/08/11 06:32:09;;;;;;;7.38;5.22;;;;;;;;;;5133419;27;20203;-78
2021/08/11 06:34:36;;;;;;;5.95;4.80;;;;;;;;;;5133863;27;20236;-78
2021/08/11 06:37:04;;;;;;;8.52;4.97;;;;;;;;;;5133700;27;20293;-79
2021/08/11 06:39:31;;;;;;;6.20;5.35;;;;;;;;;;5133640;27;20279;-78
2021/08/11 06:42:00;;;;;;;6.63;5.43;;;;;;;;;;5133907;27;20288;-78
2021/08/11 06:44:27;;;;;;;6.15;5.38;;;;;;;;;;5133493;27;20658;-78
2021/08/11 06:46:54;;;;;;;5.53;4.78;;;;;;;;;;5133333;27;20263;-78
2021/08/11 06:49:21;;;;;;;6.00;5.05;;;;;;;;;;5133332;27;20203;-78
2021/08/11 06:51:48;;;;;;;5.82;4.90;;;;;;;;;;5133296;27;20287;-79
2021/08/11 06:54:16;;;;;;;6.05;5.13;;;;;;;;;;5133147;27;20256;-78
2021/08/11 06:56:43;;;;;;;5.55;4.95;;;;;;;;;;5133548;27;20281;-79
2021/08/11 06:59:12;;;;;;;6.05;4.85;;;;;;;;;;5133544;27;20205;-79
2021/08/11 07:01:39;;;;;;;7.53;5.07;;;;;;;;;;5133197;27;20275;-79
2021/08/11 07:04:06;;;;;;;5.95;5.28;;;;;;;;;;5132947;27;20643;-79
2021/08/11 07:06:33;;;;;;;6.10;5.43;;;;;;;;;;5133163;27;20755;-78
2021/08/11 07:09:00;;;;;;;5.70;5.10;;;;;;;;;;5133129;27;20312;-78
2021/08/11 07:11:27;;;;;;;7.60;6.72;;;;;;;;;;5133020;27;20203;-78
2021/08/11 07:13:54;;;;;;;11.63;9.02;;;;;;;;;;5133180;27;20193;-79
2021/08/11 07:16:23;;;;;;;12.38;11.18;;;;;;;;;;5132960;27;20196;-79
2021/08/11 07:18:50;;;;;;;13.70;11.70;;;;;;;;;;5133154;27;20288;-79
2021/08/11 07:21:17;;;;;;;10.43;9.43;;;;;;;;;;5133014;27;20287;-79
2021/08/11 07:23:44;;;;;;;7.32;6.35;;;;;;;;;;5132994;27;20316;-79
2021/08/11 07:26:12;;;;;;;6.57;5.97;;;;;;;;;;5132766;27;20593;-79
2021/08/11 07:28:39;;;;;;;7.03;5.80;;;;;;;;;;5133209;27;20197;-79
2021/08/11 07:31:07;;;;;;;8.48;5.95;;;;;;;;;;5136474;27;20634;-79
2021/08/11 07:33:35;;;;;;;6.43;5.32;;;;;;;;;;5136924;27;20656;-79
2021/08/11 07:36:02;;;;;;;5.93;5.20;;;;;;;;;;5137150;27;20284;-79
2021/08/11 07:38:29;;;;;;;6.75;5.53;;;;;;;;;;5137196;27;20607;-79
2021/08/11 07:40:57;;;;;;;8.45;5.78;;;;;;;;;;5136791;27;20656;-79
2021/08/11 07:43:24;;;;;;;7.00;5.88;;;;;;;;;;5137103;27;20221;-79
2021/08/11 07:45:51;;;;;;;7.03;5.95;;;;;;;;;;5137053;27;20204;-78
2021/08/11 07:48:18;;;;;;;7.72;6.13;;;;;;;;;;5136581;27;20692;-77
2021/08/11 07:50:47;;;;;;;7.53;6.70;;;;;;;;;;5137062;27;20635;-79
2021/08/11 07:53:14;;;;;;;9.35;6.35;;;;;;;;;;5136468;27;20608;-77
2021/08/11 07:55:41;;;;;;;7.15;5.80;;;;;;;;;;5136906;27;20293;-79
2021/08/11 07:58:08;;;;;;;7.57;5.93;;;;;;;;;;5136714;27;20293;-79
2021/08/11 08:00:35;;;;;;;5.50;4.85;;;;;;;;;;5136448;27;20579;-77
2021/08/11 08:03:02;;;;;;;5.15;4.60;;;;;;;;;;5136513;27;20643;-79
2021/08/11 08:05:30;;;;;;;5.57;4.43;;;;;;;;;;5136818;27;20712;-79
2021/08/11 08:07:59;;;;;;;4.53;3.90;;;;;;;;;;5136874;27;20295;-79
2021/08/11 08:10:26;;;;;;;4.88;3.50;;;;;;;;;;5136829;27;20197;-79
2021/08/11 08:12:53;;;;;;;4.45;3.47;;;;;;;;;;5136596;27;20284;-79
2021/08/11 08:15:20;;;;;;;4.50;3.85;;;;;;;;;;5136304;27;20284;-79
2021/08/11 08:17:48;;;;;;;6.75;3.90;;;;;;;;;;5136649;27;20247;-79
2021/08/11 08:20:15;;;;;;;5.10;3.33;;;;;;;;;;5136588;27;20232;-79
2021/08/11 08:22:42;;;;;;;4.93;3.60;;;;;;;;;;5136823;27;20660;-79
2021/08/11 08:25:12;;;;;;;3.80;3.50;;;;;;;;;;5136617;27;20220;-79
2021/08/11 08:27:40;;;;;;;4.60;3.75;;;;;;;;;;5136213;27;20615;-79
2021/08/11 08:30:08;;;;;;;5.75;3.67;;;;;;;;;;5136285;27;20308;-79
2021/08/11 08:32:35;;;;;;;6.07;3.90;;;;;;;;;;5136637;27;20280;-79
2021/08/11 08:35:02;;;;;;;4.20;3.72;;;;;;;;;;5136258;27;20281;-79
2021/08/11 08:37:31;;;;;;;5.97;3.42;;;;;;;;;;5136205;27;20225;-79
2021/08/11 08:39:58;;;;;;;4.15;3.72;;;;;;;;;;5135958;27;20283;-79
2021/08/11 08:42:26;;;;;;;4.93;3.35;;;;;;;;;;5134890;27;20232;-79
2021/08/11 08:44:54;;;;;;;4.80;3.35;;;;;;;;;;5135557;27;20308;-79
2021/08/11 08:47:22;;;;;;;4.30;3.55;;;;;;;;;;5135488;27;20287;-80
2021/08/11 08:49:50;;;;;;;4.70;3.38;;;;;;;;;;5135747;27;20553;-80
2021/08/11 08:52:18;;;;;;;5.15;3.17;;;;;;;;;;5135557;27;20193;-80
2021/08/11 08:54:46;;;;;;;4.22;3.70;;;;;;;;;;5135391;27;20324;-79
2021/08/11 08:57:13;;;;;;;4.07;3.67;;;;;;;;;;5135059;27;20197;-79
2021/08/11 08:59:44;;;;;;;4.60;3.30;;;;;;;;;;5125265;27;20688;-81
2021/08/11 09:02:11;;;;;;;4.78;3.35;;;;;;;;;;5114735;28;20200;-81
2021/08/11 09:04:40;;;;;;;3.97;2.90;;;;;;;;;;5115038;28;20222;-80
2021/08/11 09:07:10;;;;;;;3.78;2.92;;;;;;;;;;5115054;28;20205;-80
2021/08/11 09:09:38;;;;;;;4.70;3.08;;;;;;;;;;5115082;28;20222;-81
2021/08/11 09:12:12;;;;;;;3.83;2.90;;;;;;;;;;5114521;28;20698;-80
2021/08/11 09:14:42;;;;;;;4.95;3.10;;;;;;;;;;5114488;27;20568;-80
2021/08/11 09:17:10;;;;;;;3.63;2.83;;;;;;;;;;5114439;28;20302;-79
2021/08/11 09:19:38;;;;;;;3.65;3.13;;;;;;;;;;5114403;28;20676;-80
2021/08/11 09:22:06;;;;;;;5.40;3.60;;;;;;;;;;5114654;28;20280;-80
2021/08/11 09:24:36;;;;;;;3.55;3.05;;;;;;;;;;5114212;28;20887;-79
2021/08/11 09:27:21;;;;;;;3.92;3.53;;;;;;;;;;5114124;28;20734;-79
2021/08/11 09:30:11;;;;;;;4.78;3.40;;;;;;;;;;5114267;28;20251;-80
2021/08/11 09:32:49;;;;;;;4.07;3.42;;;;;;;;;;5115120;27;20197;-80
2021/08/11 09:35:18;;;;;;;3.30;3.00;;;;;;;;;;5113934;28;20254;-79
2021/08/11 09:37:45;;;;;;;4.68;3.58;;;;;;;;;;5114422;28;20203;-80
2021/08/11 09:40:14;;;;;;;5.75;3.50;;;;;;;;;;5113782;28;20292;-79
2021/08/11 09:42:41;;;;;;;4.75;3.60;;;;;;;;;;5113150;28;20233;-80
2021/08/11 09:45:09;;;;;;;3.95;3.47;;;;;;;;;;5113848;28;20312;-79
2021/08/11 09:47:36;;;;;;;4.75;3.67;;;;;;;;;;5113822;28;20197;-79
2021/08/11 09:50:06;;;;;;;3.30;2.92;;;;;;;;;;5113972;28;20285;-79
2021/08/11 09:52:46;;;;;;;4.32;3.10;;;;;;;;;;5114021;28;20285;-79
2021/08/11 09:55:14;;;;;;;3.85;3.40;;;;;;;;;;5113496;28;20208;-79
2021/08/11 09:57:41;;;;;;;4.57;3.92;;;;;;;;;;5113699;28;20236;-80
2021/08/11 10:00:12;;;;;;;5.47;3.90;;;;;;;;;;5113797;28;20252;-80
2021/08/11 10:02:40;;;;;;;4.20;3.45;;;;;;;;;;5113423;28;20205;-79
2021/08/11 10:05:10;;;;;;;3.80;3.40;;;;;;;;;;5113314;28;20226;-79
2021/08/11 10:07:37;;;;;;;4.47;2.92;;;;;;;;;;5113553;28;20584;-80
2021/08/11 10:10:06;;;;;;;3.15;2.80;;;;;;;;;;5113227;28;20674;-79
2021/08/11 10:12:33;;;;;;;4.55;2.80;;;;;;;;;;5113618;28;20282;-80
2021/08/11 10:15:02;;;;;;;3.45;3.15;;;;;;;;;;5113842;28;20228;-79
2021/08/11 10:17:31;;;;;;;3.30;3.00;;;;;;;;;;5113199;28;20294;-79
2021/08/11 10:19:59;;;;;;;4.57;3.50;;;;;;;;;;5113222;28;20236;-80
2021/08/11 10:22:28;;;;;;;3.90;3.60;;;;;;;;;;5113621;28;20202;-80
2021/08/11 10:24:56;;;;;;;3.60;3.30;;;;;;;;;;5113278;28;20260;-79
2021/08/11 10:27:23;;;;;;;3.78;3.38;;;;;;;;;;5113129;28;20289;-79
2021/08/11 10:29:52;;;;;;;5.18;3.60;;;;;;;;;;5113376;28;20198;-79
2021/08/11 10:32:19;;;;;;;3.42;3.13;;;;;;;;;;5113077;27;20232;-79
2021/08/11 10:34:46;;;;;;;3.88;3.45;;;;;;;;;;5113033;28;20660;-79
2021/08/11 10:37:14;;;;;;;3.95;3.22;;;;;;;;;;5113429;28;20332;-80
2021/08/11 10:39:42;;;;;;;3.15;2.88;;;;;;;;;;5112699;28;20286;-80
2021/08/11 10:42:10;;;;;;;4.72;3.10;;;;;;;;;;5112610;27;20288;-80
2021/08/11 10:44:38;;;;;;;4.55;3.60;;;;;;;;;;5112725;28;20264;-79
2021/08/11 10:47:05;;;;;;;3.95;2.92;;;;;;;;;;5113295;28;20549;-80
2021/08/11 10:49:33;;;;;;;5.07;3.10;;;;;;;;;;5112626;28;20640;-79
2021/08/11 10:52:14;;;;;;;4.13;3.13;;;;;;;;;;5112772;28;20229;-79
2021/08/11 10:54:52;;;;;;;3.40;3.00;;;;;;;;;;5112215;28;20680;-79
2021/08/11 10:57:44;;;;;;;4.82;3.55;;;;;;;;;;5113091;28;20197;-79
2021/08/11 11:00:13;;;;;;;5.60;3.70;;;;;;;;;;5113169;28;20201;-79
2021/08/11 11:02:44;;;;;;;4.05;3.03;;;;;;;;;;5112773;28;20276;-79
2021/08/11 11:05:31;;;;;;;5.10;3.47;;;;;;;;;;5112108;28;20325;-79
2021/08/11 11:08:13;;;;;;;3.38;3.08;;;;;;;;;;5112067;28;20677;-79
2021/08/11 11:10:42;;;;;;;3.70;3.35;;;;;;;;;;5112784;28;20658;-79
2021/08/11 11:13:26;;;;;;;4.53;3.17;;;;;;;;;;5113014;28;20280;-79
2021/08/11 11:15:53;;;;;;;3.85;2.80;;;;;;;;;;5112818;28;20190;-79
2021/08/11 11:18:21;;;;;;;3.78;2.90;;;;;;;;;;5112756;28;20600;-80
2021/08/11 11:20:48;;;;;;;3.17;2.80;;;;;;;;;;5112741;28;20208;-79
2021/08/11 11:23:32;;;;;;;3.75;2.70;;;;;;;;;;5112852;28;20194;-80
2021/08/11 11:26:05;;;;;;;4.13;3.05;;;;;;;;;;5112357;28;20217;-79
2021/08/11 11:28:51;;;;;;;2.72;2.53;;;;;;;;;;5112688;28;20201;-79
2021/08/11 11:31:37;;;;;;;2.60;2.40;;;;;;;;;;5112483;28;20578;-79
2021/08/11 11:34:22;;;;;;;3.25;2.65;;;;;;;;;;5112406;28;20896;-80
2021/08/11 11:37:04;;;;;;;3.55;2.50;;;;;;;;;;5111904;28;20722;-79
2021/08/11 11:39:32;;;;;;;4.40;3.10;;;;;;;;;;5112047;28;20207;-80
2021/08/11 11:42:22;;;;;;;3.55;2.90;;;;;;;;;;5112228;28;20186;-80
2021/08/11 11:44:52;;;;;;;4.45;3.15;;;;;;;;;;5112000;28;20312;-80
2021/08/11 11:47:20;;;;;;;3.45;2.88;;;;;;;;;;5112546;28;20208;-79
2021/08/11 11:49:47;;;;;;;3.47;3.10;;;;;;;;;;5112305;28;20221;-79
2021/08/11 11:52:15;;;;;;;3.22;2.92;;;;;;;;;;5112459;28;20248;-80
2021/08/11 11:54:46;;;;;;;3.90;3.33;;;;;;;;;;5111662;28;20268;-79
2021/08/11 11:57:14;;;;;;;3.55;3.25;;;;;;;;;;5112182;28;20201;-79
2021/08/11 11:59:45;;;;;;;3.92;3.00;;;;;;;;;;5122122;27;20205;-79
2021/08/11 12:02:20;;;;;;;3.63;3.00;;;;;;;;;;5132697;27;20311;-80
2021/08/11 12:05:02;;;;;;;5.10;3.20;;;;;;;;;;5132012;27;20766;-80
2021/08/11 12:07:29;;;;;;;3.40;3.10;;;;;;;;;;5132456;27;20234;-80
2021/08/11 12:09:57;;;;;;;3.42;3.13;;;;;;;;;;5132587;27;20221;-80
2021/08/11 12:12:24;;;;;;;3.13;2.83;;;;;;;;;;5132445;27;20688;-80
2021/08/11 12:14:51;;;;;;;3.35;2.85;;;;;;;;;;5132827;27;20284;-80
2021/08/11 12:17:30;;;;;;;3.72;2.97;;;;;;;;;;5134854;27;20247;-80
2021/08/11 12:19:57;;;;;;;3.33;3.00;;;;;;;;;;5135856;27;20285;-80
2021/08/11 12:22:30;;;;;;;3.00;2.70;;;;;;;;;;5136443;27;20288;-79
2021/08/11 12:24:57;;;;;;;3.47;2.97;;;;;;;;;;5136189;27;20778;-80
2021/08/11 12:27:25;;;;;;;2.78;2.50;;;;;;;;;;5136176;27;20288;-79
2021/08/11 12:30:15;;;;;;;2.80;2.58;;;;;;;;;;5135983;27;20225;-79
2021/08/11 12:32:44;;;;;;;4.00;3.25;;;;;;;;;;5135854;27;20201;-79
2021/08/11 12:35:11;;;;;;;3.22;2.92;;;;;;;;;;5135421;27;20635;-79
2021/08/11 12:37:44;;;;;;;3.40;3.10;;;;;;;;;;5135855;27;20201;-80
2021/08/11 12:40:27;;;;;;;3.20;2.88;;;;;;;;;;5135762;27;20674;-80
2021/08/11 12:42:54;;;;;;;4.20;3.30;;;;;;;;;;5135604;27;21386;-80
2021/08/11 12:45:21;;;;;;;3.20;2.83;;;;;;;;;;5135774;27;20741;-80
2021/08/11 12:47:50;;;;;;;3.20;2.90;;;;;;;;;;5135545;27;20235;-80
2021/08/11 12:50:17;;;;;;;3.20;2.90;;;;;;;;;;5135542;27;20276;-80
2021/08/11 12:52:53;;;;;;;3.65;2.97;;;;;;;;;;5135717;27;20285;-79
2021/08/11 12:55:31;;;;;;;5.20;3.20;;;;;;;;;;5135734;27;20303;-79
2021/08/11 12:57:58;;;;;;;3.10;2.80;;;;;;;;;;5135703;27;20203;-80
2021/08/11 13:00:41;;;;;;;3.58;3.13;;;;;;;;;;5135208;27;20296;-79
2021/08/11 13:03:11;;;;;;;4.70;2.88;;;;;;;;;;5135172;27;20583;-79
2021/08/11 13:05:58;;;;;;;3.40;3.10;;;;;;;;;;5135211;27;20232;-79
2021/08/11 13:08:37;;;;;;;3.60;3.13;;;;;;;;;;5135203;27;20588;-79
2021/08/11 13:11:05;;;;;;;4.22;3.17;;;;;;;;;;5135171;27;20197;-80
2021/08/11 13:13:32;;;;;;;3.40;3.10;;;;;;;;;;5135124;27;20221;-79
2021/08/11 13:16:08;;;;;;;3.72;3.28;;;;;;;;;;5134925;27;20238;-79
2021/08/11 13:18:37;;;;;;;3.60;3.15;;;;;;;;;;5134756;27;20236;-79
2021/08/11 13:21:04;;;;;;;3.20;2.90;;;;;;;;;;5135391;27;20279;-79
2021/08/11 13:23:31;;;;;;;3.55;3.17;;;;;;;;;;5134868;27;20288;-79
2021/08/11 13:25:59;;;;;;;3.70;3.10;;;;;;;;;;5135106;27;20465;-79
2021/08/11 13:28:26;;;;;;;4.03;3.40;;;;;;;;;;5134900;27;20678;-80
2021/08/11 13:30:54;;;;;;;5.63;3.63;;;;;;;;;;5135155;27;20224;-79
2021/08/11 13:33:21;;;;;;;3.95;3.45;;;;;;;;;;5134548;27;20201;-79
2021/08/11 13:35:50;;;;;;;3.60;3.30;;;;;;;;;;5135018;27;20200;-79
2021/08/11 13:38:17;;;;;;;4.13;3.17;;;;;;;;;;5134913;27;20204;-79
2021/08/11 13:40:44;;;;;;;4.47;3.45;;;;;;;;;;5134790;27;20292;-79
2021/08/11 13:43:11;;;;;;;3.30;3.00;;;;;;;;;;5134791;27;20288;-79
2021/08/11 13:45:40;;;;;;;4.90;3.40;;;;;;;;;;5134552;27;20308;-79
2021/08/11 13:48:07;;;;;;;4.22;3.40;;;;;;;;;;5134431;27;20209;-79
2021/08/11 13:50:35;;;;;;;3.97;3.20;;;;;;;;;;5134646;27;20203;-79
2021/08/11 13:53:03;;;;;;;3.88;3.47;;;;;;;;;;5134122;27;20197;-80
2021/08/11 13:55:30;;;;;;;3.75;3.25;;;;;;;;;;5133073;27;20201;-79
2021/08/11 13:57:58;;;;;;;4.25;3.38;;;;;;;;;;5134237;27;20287;-79
2021/08/11 14:00:26;;;;;;;4.65;3.53;;;;;;;;;;5134276;27;20209;-79
2021/08/11 14:02:53;;;;;;;4.75;3.65;;;;;;;;;;5133947;27;20201;-80
2021/08/11 14:05:20;;;;;;;4.15;3.75;;;;;;;;;;5134164;27;20613;-79
2021/08/11 14:07:47;;;;;;;4.13;3.42;;;;;;;;;;5133900;27;20204;-79
2021/08/11 14:10:16;;;;;;;4.00;3.38;;;;;;;;;;5134327;27;20209;-79
2021/08/11 14:12:43;;;;;;;3.67;3.30;;;;;;;;;;5134317;27;20199;-79
2021/08/11 14:15:10;;;;;;;4.75;3.65;;;;;;;;;;5134062;27;20192;-79
2021/08/11 14:17:38;;;;;;;5.25;3.42;;;;;;;;;;5133642;27;20283;-79
2021/08/11 14:20:06;;;;;;;5.18;3.80;;;;;;;;;;5133938;27;20231;-79
2021/08/11 14:22:33;;;;;;;3.95;3.55;;;;;;;;;;5133915;27;20731;-79
2021/08/11 14:25:00;;;;;;;4.60;3.60;;;;;;;;;;5133886;27;20203;-79
2021/08/11 14:27:29;;;;;;;4.05;3.65;;;;;;;;;;5134209;27;20304;-79
2021/08/11 14:29:56;;;;;;;4.38;3.97;;;;;;;;;;5133628;27;20288;-80
2021/08/11 14:32:23;;;;;;;4.45;3.30;;;;;;;;;;5133717;27;20284;-79
2021/08/11 14:34:50;;;;;;;4.47;3.60;;;;;;;;;;5133661;27;20325;-78
2021/08/11 14:37:18;;;;;;;5.28;3.55;;;;;;;;;;5133994;27;20284;-79
2021/08/11 14:39:45;;;;;;;4.32;3.92;;;;;;;;;;5133089;27;20644;-79
2021/08/11 14:42:12;;;;;;;4.40;3.67;;;;;;;;;;5133354;27;20254;-79
2021/08/11 14:44:40;;;;;;;3.67;3.28;;;;;;;;;;5133122;27;20279;-79
2021/08/11 14:47:10;;;;;;;4.75;3.70;;;;;;;;;;5133144;27;20308;-79
2021/08/11 14:49:37;;;;;;;5.47;4.22;;;;;;;;;;5133451;27;20568;-80
2021/08/11 14:52:05;;;;;;;4.20;3.80;;;;;;;;;;5133351;27;20647;-79